sensor_id;sensor_type;location;lat;lon;timestamp;pressure;altitude;pressure_sealevel;temperature;humidity
78890;BME280;68279;48.964;14.502;2023-04-24T00:00:36;95978.38;;;8.01;96.91
78890;BME280;68279;48.964;14.502;2023-04-24T00:03:03;95985.88;;;7.80;97.06
78890;BME280;68279;48.964;14.502;2023-04-24T00:05:28;95998.25;;;7.90;97.05
78890;BME280;68279;48.964;14.502;2023-04-24T00:07:54;96002.28;;;7.87;96.85
78890;BME280;68279;48.964;14.502;2023-04-24T00:10:21;96008.16;;;7.84;96.61
78890;BME280;68279;48.964;14.502;2023-04-24T00:12:47;96012.63;;;7.70;97.27
78890;BME280;68279;48.964;14.502;2023-04-24T00:15:13;96007.78;;;7.53;96.65
78890;BME280;68279;48.964;14.502;2023-04-24T00:17:38;96002.25;;;7.26;97.09
78890;BME280;68279;48.964;14.502;2023-04-24T00:20:05;96013.50;;;7.18;96.90
78890;BME280;68279;48.964;14.502;2023-04-24T00:22:32;96012.59;;;7.03;96.48
78890;BME280;68279;48.964;14.502;2023-04-24T00:24:58;96011.25;;;6.77;96.35
78890;BME280;68279;48.964;14.502;2023-04-24T00:27:24;96017.16;;;6.74;96.69
78890;BME280;68279;48.964;14.502;2023-04-24T00:29:49;96023.44;;;6.54;97.21
78890;BME280;68279;48.964;14.502;2023-04-24T00:32:15;96022.63;;;6.53;97.04
78890;BME280;68279;48.964;14.502;2023-04-24T00:34:41;96024.75;;;6.57;97.86
78890;BME280;68279;48.964;14.502;2023-04-24T00:37:07;96020.72;;;6.59;98.08
78890;BME280;68279;48.964;14.502;2023-04-24T00:39:32;96015.19;;;6.85;98.08
78890;BME280;68279;48.964;14.502;2023-04-24T00:41:58;96019.03;;;6.97;98.09
78890;BME280;68279;48.964;14.502;2023-04-24T00:44:24;96016.13;;;6.99;98.12
78890;BME280;68279;48.964;14.502;2023-04-24T00:46:50;96033.34;;;7.01;97.69
78890;BME280;68279;48.964;14.502;2023-04-24T00:49:20;96027.03;;;6.68;98.20
78890;BME280;68279;48.964;14.502;2023-04-24T00:51:46;96025.72;;;6.66;97.19
78890;BME280;68279;48.964;14.502;2023-04-24T00:54:12;96022.38;;;6.84;98.20
78890;BME280;68279;48.964;14.502;2023-04-24T00:56:39;96017.16;;;6.74;98.42
78890;BME280;68279;48.964;14.502;2023-04-24T00:59:05;96013.56;;;6.60;98.51
78890;BME280;68279;48.964;14.502;2023-04-24T01:01:31;96012.53;;;6.56;98.25
78890;BME280;68279;48.964;14.502;2023-04-24T01:03:58;96006.94;;;6.57;98.07
78890;BME280;68279;48.964;14.502;2023-04-24T01:06:27;96006.28;;;6.70;98.72
78890;BME280;68279;48.964;14.502;2023-04-24T01:08:53;96006.81;;;6.72;97.81
78890;BME280;68279;48.964;14.502;2023-04-24T01:11:21;95993.94;;;6.21;97.46
78890;BME280;68279;48.964;14.502;2023-04-24T01:13:47;96002.22;;;6.15;97.58
78890;BME280;68279;48.964;14.502;2023-04-24T01:16:14;95993.47;;;6.14;97.45
78890;BME280;68279;48.964;14.502;2023-04-24T01:18:43;95993.47;;;6.14;97.61
78890;BME280;68279;48.964;14.502;2023-04-24T01:21:09;95995.63;;;6.07;98.44
78890;BME280;68279;48.964;14.502;2023-04-24T01:23:37;95994.09;;;6.01;98.66
78890;BME280;68279;48.964;14.502;2023-04-24T01:26:03;95992.53;;;5.90;98.63
78890;BME280;68279;48.964;14.502;2023-04-24T01:28:29;95993.66;;;6.23;99.84
78890;BME280;68279;48.964;14.502;2023-04-24T01:30:55;95993.38;;;6.24;100.00
78890;BME280;68279;48.964;14.502;2023-04-24T01:33:21;96003.28;;;6.14;100.00
78890;BME280;68279;48.964;14.502;2023-04-24T01:35:48;95995.09;;;6.10;100.00
78890;BME280;68279;48.964;14.502;2023-04-24T01:38:14;96007.44;;;6.25;100.00
78890;BME280;68279;48.964;14.502;2023-04-24T01:40:40;96014.69;;;5.70;100.00
78890;BME280;68279;48.964;14.502;2023-04-24T01:43:05;96018.59;;;5.83;100.00
78890;BME280;68279;48.964;14.502;2023-04-24T01:45:31;96018.72;;;6.12;100.00
78890;BME280;68279;48.964;14.502;2023-04-24T01:47:57;96012.81;;;6.20;100.00
78890;BME280;68279;48.964;14.502;2023-04-24T01:50:22;96014.84;;;6.62;100.00
78890;BME280;68279;48.964;14.502;2023-04-24T01:52:48;96020.81;;;6.78;100.00
78890;BME280;68279;48.964;14.502;2023-04-24T01:55:14;96011.69;;;6.89;100.00
78890;BME280;68279;48.964;14.502;2023-04-24T01:57:39;96019.03;;;6.97;100.00
78890;BME280;68279;48.964;14.502;2023-04-24T02:00:06;96013.50;;;7.18;100.00
78890;BME280;68279;48.964;14.502;2023-04-24T02:02:32;96012.78;;;7.36;100.00
78890;BME280;68279;48.964;14.502;2023-04-24T02:04:59;96000.13;;;7.47;100.00
78890;BME280;68279;48.964;14.502;2023-04-24T02:07:25;96003.41;;;7.62;99.61
78890;BME280;68279;48.964;14.502;2023-04-24T02:09:51;96004.06;;;7.73;99.46
78890;BME280;68279;48.964;14.502;2023-04-24T02:12:17;95995.50;;;7.76;99.63
78890;BME280;68279;48.964;14.502;2023-04-24T02:14:45;95996.28;;;7.77;99.39
78890;BME280;68279;48.964;14.502;2023-04-24T02:17:10;95992.97;;;7.85;99.44
78890;BME280;68279;48.964;14.502;2023-04-24T02:19:37;95984.97;;;7.85;99.06
78890;BME280;68279;48.964;14.502;2023-04-24T02:22:03;95992.19;;;7.84;99.18
78890;BME280;68279;48.964;14.502;2023-04-24T02:24:28;95994.63;;;7.81;99.25
78890;BME280;68279;48.964;14.502;2023-04-24T02:26:54;95995.72;;;7.80;99.37
78890;BME280;68279;48.964;14.502;2023-04-24T02:29:20;95989.31;;;7.81;99.35
78890;BME280;68279;48.964;14.502;2023-04-24T02:31:45;95985.13;;;7.93;99.10
78890;BME280;68279;48.964;14.502;2023-04-24T02:34:11;95980.38;;;7.90;98.88
78890;BME280;68279;48.964;14.502;2023-04-24T02:36:37;95985.66;;;7.95;98.77
78890;BME280;68279;48.964;14.502;2023-04-24T02:39:03;95984.72;;;7.86;98.98
78890;BME280;68279;48.964;14.502;2023-04-24T02:41:29;95972.84;;;7.98;98.50
78890;BME280;68279;48.964;14.502;2023-04-24T02:43:58;95977.22;;;7.88;98.60
78890;BME280;68279;48.964;14.502;2023-04-24T02:46:24;95972.13;;;7.92;98.53
78890;BME280;68279;48.964;14.502;2023-04-24T02:48:50;95964.47;;;7.85;98.60
78890;BME280;68279;48.964;14.502;2023-04-24T02:51:15;95956.72;;;7.89;98.65
78890;BME280;68279;48.964;14.502;2023-04-24T02:53:41;95954.13;;;7.84;98.34
78890;BME280;68279;48.964;14.502;2023-04-24T02:56:06;95958.66;;;7.64;98.32
78890;BME280;68279;48.964;14.502;2023-04-24T02:58:32;95943.84;;;7.77;97.92
78890;BME280;68279;48.964;14.502;2023-04-24T03:00:58;95947.44;;;7.67;98.18
78890;BME280;68279;48.964;14.502;2023-04-24T03:03:23;95944.78;;;7.67;98.75
78890;BME280;68279;48.964;14.502;2023-04-24T03:05:49;95940.53;;;7.66;98.61
78890;BME280;68279;48.964;14.502;2023-04-24T03:08:15;95949.91;;;7.64;98.14
78890;BME280;68279;48.964;14.502;2023-04-24T03:10:43;95943.94;;;7.72;97.96
78890;BME280;68279;48.964;14.502;2023-04-24T03:13:10;95944.56;;;7.83;97.75
78890;BME280;68279;48.964;14.502;2023-04-24T03:15:35;95943.50;;;7.65;97.72
78890;BME280;68279;48.964;14.502;2023-04-24T03:18:02;95941.25;;;7.53;97.94
78890;BME280;68279;48.964;14.502;2023-04-24T03:20:28;95947.03;;;6.94;97.78
78890;BME280;68279;48.964;14.502;2023-04-24T03:22:53;95947.34;;;7.16;97.96
78890;BME280;68279;48.964;14.502;2023-04-24T03:25:19;95941.75;;;7.36;97.94
78890;BME280;68279;48.964;14.502;2023-04-24T03:27:50;95941.13;;;7.45;98.73
78890;BME280;68279;48.964;14.502;2023-04-24T03:30:16;95941.75;;;7.55;98.62
78890;BME280;68279;48.964;14.502;2023-04-24T03:32:42;95940.97;;;7.55;98.88
78890;BME280;68279;48.964;14.502;2023-04-24T03:35:07;95942.34;;;7.52;98.84
78890;BME280;68279;48.964;14.502;2023-04-24T03:37:35;95934.06;;;7.54;98.99
78890;BME280;68279;48.964;14.502;2023-04-24T03:40:01;95941.69;;;7.60;98.93
78890;BME280;68279;48.964;14.502;2023-04-24T03:42:26;95948.31;;;7.63;98.59
78890;BME280;68279;48.964;14.502;2023-04-24T03:44:53;95939.88;;;7.56;98.68
78890;BME280;68279;48.964;14.502;2023-04-24T03:47:19;95936.78;;;7.67;98.72
78890;BME280;68279;48.964;14.502;2023-04-24T03:49:47;95947.66;;;7.71;98.73
78890;BME280;68279;48.964;14.502;2023-04-24T03:52:13;95953.94;;;7.80;98.55
78890;BME280;68279;48.964;14.502;2023-04-24T03:54:38;95942.19;;;7.81;98.51
78890;BME280;68279;48.964;14.502;2023-04-24T03:57:11;95944.84;;;7.81;98.33
78890;BME280;68279;48.964;14.502;2023-04-24T03:59:40;95944.66;;;7.78;97.95
78890;BME280;68279;48.964;14.502;2023-04-24T04:02:05;95946.78;;;7.76;98.17
78890;BME280;68279;48.964;14.502;2023-04-24T04:04:31;95945.78;;;7.72;98.15
78890;BME280;68279;48.964;14.502;2023-04-24T04:06:56;95948.81;;;7.84;98.05
78890;BME280;68279;48.964;14.502;2023-04-24T04:09:26;95960.75;;;7.86;98.73
78890;BME280;68279;48.964;14.502;2023-04-24T04:11:52;95957.38;;;7.81;99.08
78890;BME280;68279;48.964;14.502;2023-04-24T04:14:18;95957.38;;;7.81;99.01
78890;BME280;68279;48.964;14.502;2023-04-24T04:16:44;95961.13;;;7.80;99.22
78890;BME280;68279;48.964;14.502;2023-04-24T04:19:09;95966.78;;;7.73;99.57
78890;BME280;68279;48.964;14.502;2023-04-24T04:21:35;95966.66;;;7.83;99.38
78890;BME280;68279;48.964;14.502;2023-04-24T04:24:01;95963.28;;;7.97;99.18
78890;BME280;68279;48.964;14.502;2023-04-24T04:26:26;95964.63;;;7.94;98.82
78890;BME280;68279;48.964;14.502;2023-04-24T04:28:52;95965.63;;;7.98;98.82
78890;BME280;68279;48.964;14.502;2023-04-24T04:31:20;95974.31;;;8.04;98.28
78890;BME280;68279;48.964;14.502;2023-04-24T04:33:46;95976.78;;;8.00;98.57
78890;BME280;68279;48.964;14.502;2023-04-24T04:36:11;95968.63;;;8.10;98.08
78890;BME280;68279;48.964;14.502;2023-04-24T04:38:38;95981.47;;;8.08;97.76
78890;BME280;68279;48.964;14.502;2023-04-24T04:41:05;95979.72;;;8.17;97.55
78890;BME280;68279;48.964;14.502;2023-04-24T04:43:33;95975.31;;;8.27;97.21
78890;BME280;68279;48.964;14.502;2023-04-24T04:45:59;95973.66;;;8.31;96.85
78890;BME280;68279;48.964;14.502;2023-04-24T04:48:26;95980.00;;;8.35;96.95
78890;BME280;68279;48.964;14.502;2023-04-24T04:50:52;95990.31;;;8.41;96.32
78890;BME280;68279;48.964;14.502;2023-04-24T04:53:18;95992.66;;;8.43;96.59
78890;BME280;68279;48.964;14.502;2023-04-24T04:55:43;95989.59;;;8.36;96.51
78890;BME280;68279;48.964;14.502;2023-04-24T04:58:09;95996.31;;;8.28;97.17
78890;BME280;68279;48.964;14.502;2023-04-24T05:00:35;95992.31;;;8.31;97.19
78890;BME280;68279;48.964;14.502;2023-04-24T05:03:02;95998.56;;;8.21;97.60
78890;BME280;68279;48.964;14.502;2023-04-24T05:05:28;96004.47;;;8.18;98.26
78890;BME280;68279;48.964;14.502;2023-04-24T05:07:54;96006.84;;;8.19;98.46
78890;BME280;68279;48.964;14.502;2023-04-24T05:10:20;96007.88;;;8.23;98.43
78890;BME280;68279;48.964;14.502;2023-04-24T05:12:45;96009.94;;;8.27;98.52
78890;BME280;68279;48.964;14.502;2023-04-24T05:15:11;96012.47;;;8.37;98.08
78890;BME280;68279;48.964;14.502;2023-04-24T05:17:36;96009.50;;;8.38;98.07
78890;BME280;68279;48.964;14.502;2023-04-24T05:20:04;96017.44;;;8.43;97.57
78890;BME280;68279;48.964;14.502;2023-04-24T05:22:33;96014.47;;;8.45;97.61
78890;BME280;68279;48.964;14.502;2023-04-24T05:24:59;96015.28;;;8.45;97.89
78890;BME280;68279;48.964;14.502;2023-04-24T05:27:25;96018.94;;;8.49;97.63
78890;BME280;68279;48.964;14.502;2023-04-24T05:29:50;96028.03;;;8.48;97.84
78890;BME280;68279;48.964;14.502;2023-04-24T05:32:16;96027.00;;;8.44;98.29
78890;BME280;68279;48.964;14.502;2023-04-24T05:34:42;96028.59;;;8.45;98.45
78890;BME280;68279;48.964;14.502;2023-04-24T05:37:07;96028.28;;;8.47;98.37
78890;BME280;68279;48.964;14.502;2023-04-24T05:39:35;96025.75;;;8.56;98.18
78890;BME280;68279;48.964;14.502;2023-04-24T05:42:02;96026.47;;;8.61;97.97
78890;BME280;68279;48.964;14.502;2023-04-24T05:44:28;96032.47;;;8.86;97.00
78890;BME280;68279;48.964;14.502;2023-04-24T05:46:54;96025.50;;;8.71;97.64
78890;BME280;68279;48.964;14.502;2023-04-24T05:49:21;96029.34;;;8.65;97.82
78890;BME280;68279;48.964;14.502;2023-04-24T05:51:46;96036.66;;;8.73;98.17
78890;BME280;68279;48.964;14.502;2023-04-24T05:54:12;96037.81;;;8.99;97.47
78890;BME280;68279;48.964;14.502;2023-04-24T05:56:39;96035.03;;;8.91;97.61
78890;BME280;68279;48.964;14.502;2023-04-24T05:59:04;96038.94;;;9.12;96.53
78890;BME280;68279;48.964;14.502;2023-04-24T06:01:30;96045.69;;;9.37;95.55
78890;BME280;68279;48.964;14.502;2023-04-24T06:03:57;96044.56;;;9.24;95.63
78890;BME280;68279;48.964;14.502;2023-04-24T06:06:23;96046.44;;;9.10;96.62
78890;BME280;68279;48.964;14.502;2023-04-24T06:08:49;96043.81;;;8.91;98.34
78890;BME280;68279;48.964;14.502;2023-04-24T06:11:15;96048.28;;;8.96;98.82
78890;BME280;68279;48.964;14.502;2023-04-24T06:13:41;96052.75;;;9.14;98.89
78890;BME280;68279;48.964;14.502;2023-04-24T06:16:06;96049.59;;;9.12;97.79
78890;BME280;68279;48.964;14.502;2023-04-24T06:18:32;96050.50;;;9.21;97.98
78890;BME280;68279;48.964;14.502;2023-04-24T06:20:58;96057.72;;;9.21;97.77
78890;BME280;68279;48.964;14.502;2023-04-24T06:23:24;96054.88;;;9.31;98.08
78890;BME280;68279;48.964;14.502;2023-04-24T06:25:50;96062.06;;;9.44;97.77
78890;BME280;68279;48.964;14.502;2023-04-24T06:28:17;96054.75;;;9.36;97.82
78890;BME280;68279;48.964;14.502;2023-04-24T06:30:42;96056.72;;;9.44;97.72
78890;BME280;68279;48.964;14.502;2023-04-24T06:33:08;96066.63;;;9.44;98.15
78890;BME280;68279;48.964;14.502;2023-04-24T06:35:34;96063.75;;;9.68;97.69
78890;BME280;68279;48.964;14.502;2023-04-24T06:38:00;96063.06;;;9.48;98.04
78890;BME280;68279;48.964;14.502;2023-04-24T06:40:25;96058.31;;;9.59;98.11
78890;BME280;68279;48.964;14.502;2023-04-24T06:42:51;96054.06;;;9.44;97.97
78890;BME280;68279;48.964;14.502;2023-04-24T06:45:16;96057.75;;;9.48;97.84
78890;BME280;68279;48.964;14.502;2023-04-24T06:47:42;96068.13;;;9.50;98.55
78890;BME280;68279;48.964;14.502;2023-04-24T06:50:08;96055.16;;;9.57;98.22
78890;BME280;68279;48.964;14.502;2023-04-24T06:52:34;96058.72;;;9.52;98.62
78890;BME280;68279;48.964;14.502;2023-04-24T06:55:02;96067.00;;;9.78;97.73
78890;BME280;68279;48.964;14.502;2023-04-24T06:57:28;96068.19;;;9.45;97.49
78890;BME280;68279;48.964;14.502;2023-04-24T06:59:54;96063.16;;;9.43;98.24
78890;BME280;68279;48.964;14.502;2023-04-24T07:02:20;96065.13;;;9.51;98.44
78890;BME280;68279;48.964;14.502;2023-04-24T07:04:46;96072.66;;;9.49;97.97
78890;BME280;68279;48.964;14.502;2023-04-24T07:07:14;96072.06;;;9.52;97.60
78890;BME280;68279;48.964;14.502;2023-04-24T07:09:40;96073.44;;;9.77;98.37
78890;BME280;68279;48.964;14.502;2023-04-24T07:12:09;96070.06;;;9.72;98.04
78890;BME280;68279;48.964;14.502;2023-04-24T07:14:39;96074.00;;;10.02;97.32
78890;BME280;68279;48.964;14.502;2023-04-24T07:17:05;96077.66;;;10.56;95.71
78890;BME280;68279;48.964;14.502;2023-04-24T07:19:33;96064.25;;;10.33;93.47
78890;BME280;68279;48.964;14.502;2023-04-24T07:21:58;96075.38;;;10.27;94.08
78890;BME280;68279;48.964;14.502;2023-04-24T07:24:25;96071.75;;;10.67;92.07
78890;BME280;68279;48.964;14.502;2023-04-24T07:26:52;96071.03;;;10.75;91.51
78890;BME280;68279;48.964;14.502;2023-04-24T07:29:18;96069.53;;;10.61;92.69
78890;BME280;68279;48.964;14.502;2023-04-24T07:31:43;96077.69;;;11.09;90.52
78890;BME280;68279;48.964;14.502;2023-04-24T07:34:09;96078.06;;;10.94;90.94
78890;BME280;68279;48.964;14.502;2023-04-24T07:36:35;96080.47;;;10.73;90.20
78890;BME280;68279;48.964;14.502;2023-04-24T07:39:00;96074.56;;;10.62;90.09
78890;BME280;68279;48.964;14.502;2023-04-24T07:41:26;96076.53;;;11.24;88.72
78890;BME280;68279;48.964;14.502;2023-04-24T07:43:53;96077.22;;;11.07;90.24
78890;BME280;68279;48.964;14.502;2023-04-24T07:46:20;96078.47;;;12.37;88.02
78890;BME280;68279;48.964;14.502;2023-04-24T07:48:45;96071.03;;;11.29;88.72
78890;BME280;68279;48.964;14.502;2023-04-24T07:51:14;96070.47;;;11.10;89.75
78890;BME280;68279;48.964;14.502;2023-04-24T07:53:40;96070.78;;;11.48;87.93
78890;BME280;68279;48.964;14.502;2023-04-24T07:56:06;96064.09;;;11.59;89.12
78890;BME280;68279;48.964;14.502;2023-04-24T07:58:32;96071.72;;;11.83;84.64
78890;BME280;68279;48.964;14.502;2023-04-24T08:00:57;96079.50;;;11.84;86.73
78890;BME280;68279;48.964;14.502;2023-04-24T08:03:23;96078.75;;;11.30;86.79
78890;BME280;68279;48.964;14.502;2023-04-24T08:05:50;96078.44;;;12.81;81.16
78890;BME280;68279;48.964;14.502;2023-04-24T08:08:16;96083.66;;;12.25;84.14
78890;BME280;68279;48.964;14.502;2023-04-24T08:10:45;96085.84;;;12.23;83.70
78890;BME280;68279;48.964;14.502;2023-04-24T08:13:10;96082.25;;;12.71;81.46
78890;BME280;68279;48.964;14.502;2023-04-24T08:15:36;96083.78;;;13.07;80.99
78890;BME280;68279;48.964;14.502;2023-04-24T08:18:02;96088.88;;;12.30;81.63
78890;BME280;68279;48.964;14.502;2023-04-24T08:20:28;96084.59;;;12.21;81.25
78890;BME280;68279;48.964;14.502;2023-04-24T08:22:53;96092.19;;;12.44;80.38
78890;BME280;68279;48.964;14.502;2023-04-24T08:25:19;96085.88;;;12.75;77.94
78890;BME280;68279;48.964;14.502;2023-04-24T08:27:45;96092.63;;;12.12;81.90
78890;BME280;68279;48.964;14.502;2023-04-24T08:30:11;96092.72;;;11.50;80.66
78890;BME280;68279;48.964;14.502;2023-04-24T08:32:37;96095.03;;;12.39;79.96
78890;BME280;68279;48.964;14.502;2023-04-24T08:35:02;96094.66;;;13.36;79.07
78890;BME280;68279;48.964;14.502;2023-04-24T08:37:28;96088.81;;;13.34;83.23
78890;BME280;68279;48.964;14.502;2023-04-24T08:39:54;96097.69;;;13.26;81.96
78890;BME280;68279;48.964;14.502;2023-04-24T08:42:20;96092.03;;;12.84;83.54
78890;BME280;68279;48.964;14.502;2023-04-24T08:44:48;96100.88;;;12.41;80.90
78890;BME280;68279;48.964;14.502;2023-04-24T08:47:14;96100.31;;;13.52;81.08
78890;BME280;68279;48.964;14.502;2023-04-24T08:49:40;96092.16;;;14.58;75.61
78890;BME280;68279;48.964;14.502;2023-04-24T08:52:06;96097.41;;;12.75;75.59
78890;BME280;68279;48.964;14.502;2023-04-24T08:54:34;96100.19;;;12.27;80.20
78890;BME280;68279;48.964;14.502;2023-04-24T08:57:01;96107.31;;;12.32;77.99
78890;BME280;68279;48.964;14.502;2023-04-24T08:59:27;96100.41;;;12.65;81.24
78890;BME280;68279;48.964;14.502;2023-04-24T09:01:55;96101.81;;;12.71;79.89
78890;BME280;68279;48.964;14.502;2023-04-24T09:04:21;96098.50;;;12.31;83.12
78890;BME280;68279;48.964;14.502;2023-04-24T09:06:48;96100.06;;;12.32;84.26
78890;BME280;68279;48.964;14.502;2023-04-24T09:09:16;96092.09;;;13.48;82.13
78890;BME280;68279;48.964;14.502;2023-04-24T09:11:42;96095.22;;;13.97;77.14
78890;BME280;68279;48.964;14.502;2023-04-24T09:14:09;96101.00;;;13.05;76.16
78890;BME280;68279;48.964;14.502;2023-04-24T09:16:35;96095.13;;;13.38;75.13
78890;BME280;68279;48.964;14.502;2023-04-24T09:19:01;96086.19;;;14.23;74.43
78890;BME280;68279;48.964;14.502;2023-04-24T09:21:32;96092.63;;;13.71;70.03
78890;BME280;68279;48.964;14.502;2023-04-24T09:24:01;96080.38;;;15.62;70.03
78890;BME280;68279;48.964;14.502;2023-04-24T09:26:36;96082.91;;;14.67;68.64
78890;BME280;68279;48.964;14.502;2023-04-24T09:29:03;96091.53;;;15.27;69.12
78890;BME280;68279;48.964;14.502;2023-04-24T09:31:29;96088.47;;;13.82;70.84
78890;BME280;68279;48.964;14.502;2023-04-24T09:33:58;96077.81;;;13.95;70.86
78890;BME280;68279;48.964;14.502;2023-04-24T09:36:28;96082.34;;;14.03;71.54
78890;BME280;68279;48.964;14.502;2023-04-24T09:38:58;96085.28;;;14.39;75.63
78890;BME280;68279;48.964;14.502;2023-04-24T09:41:24;96078.50;;;15.74;68.94
78890;BME280;68279;48.964;14.502;2023-04-24T09:43:50;96081.63;;;16.13;71.90
78890;BME280;68279;48.964;14.502;2023-04-24T09:46:18;96077.84;;;15.20;71.82
78890;BME280;68279;48.964;14.502;2023-04-24T09:48:43;96071.63;;;13.94;70.46
78890;BME280;68279;48.964;14.502;2023-04-24T09:51:09;96076.25;;;13.55;71.63
78890;BME280;68279;48.964;14.502;2023-04-24T09:53:38;96081.94;;;14.42;70.44
78890;BME280;68279;48.964;14.502;2023-04-24T09:56:09;96082.50;;;13.30;69.62
78890;BME280;68279;48.964;14.502;2023-04-24T09:58:36;96094.66;;;13.19;72.18
78890;BME280;68279;48.964;14.502;2023-04-24T10:01:04;96082.56;;;12.52;73.08
78890;BME280;68279;48.964;14.502;2023-04-24T10:03:31;96088.41;;;12.28;73.27
78890;BME280;68279;48.964;14.502;2023-04-24T10:06:01;96092.13;;;12.10;72.48
78890;BME280;68279;48.964;14.502;2023-04-24T10:08:33;96100.97;;;12.19;73.77
78890;BME280;68279;48.964;14.502;2023-04-24T10:11:01;96100.00;;;12.06;77.40
78890;BME280;68279;48.964;14.502;2023-04-24T10:13:28;96108.34;;;11.25;82.63
78890;BME280;68279;48.964;14.502;2023-04-24T10:15:56;96109.78;;;11.94;82.55
78890;BME280;68279;48.964;14.502;2023-04-24T10:18:23;96110.75;;;12.15;79.61
78890;BME280;68279;48.964;14.502;2023-04-24T10:20:52;96115.22;;;12.37;76.77
78890;BME280;68279;48.964;14.502;2023-04-24T10:23:20;96105.53;;;11.61;80.04
78890;BME280;68279;48.964;14.502;2023-04-24T10:25:46;96102.25;;;11.73;78.80
78890;BME280;68279;48.964;14.502;2023-04-24T10:28:11;96102.38;;;11.59;79.94
78890;BME280;68279;48.964;14.502;2023-04-24T10:30:38;96108.22;;;11.70;80.46
78890;BME280;68279;48.964;14.502;2023-04-24T10:33:06;96107.75;;;12.08;79.81
78890;BME280;68279;48.964;14.502;2023-04-24T10:35:37;96102.00;;;13.56;73.22
78890;BME280;68279;48.964;14.502;2023-04-24T10:38:07;96098.38;;;14.20;71.91
78890;BME280;68279;48.964;14.502;2023-04-24T10:40:35;96093.16;;;13.94;70.75
78890;BME280;68279;48.964;14.502;2023-04-24T10:43:05;96101.94;;;14.03;75.86
78890;BME280;68279;48.964;14.502;2023-04-24T10:45:31;96099.47;;;13.98;73.85
78890;BME280;68279;48.964;14.502;2023-04-24T10:48:02;96102.63;;;14.00;73.67
78890;BME280;68279;48.964;14.502;2023-04-24T10:50:34;96105.13;;;13.03;78.35
78890;BME280;68279;48.964;14.502;2023-04-24T10:53:09;96103.13;;;14.23;72.82
78890;BME280;68279;48.964;14.502;2023-04-24T10:55:58;96099.03;;;14.88;71.00
78890;BME280;68279;48.964;14.502;2023-04-24T10:58:25;96091.97;;;14.04;74.37
78890;BME280;68279;48.964;14.502;2023-04-24T11:01:00;96101.00;;;14.79;75.96
78890;BME280;68279;48.964;14.502;2023-04-24T11:03:28;96094.22;;;14.31;75.86
78890;BME280;68279;48.964;14.502;2023-04-24T11:06:05;96100.97;;;14.37;76.00
78890;BME280;68279;48.964;14.502;2023-04-24T11:08:32;96098.47;;;14.03;74.29
78890;BME280;68279;48.964;14.502;2023-04-24T11:11:19;96089.34;;;14.25;75.24
78890;BME280;68279;48.964;14.502;2023-04-24T11:16:31;96094.06;;;13.22;78.05
78890;BME280;68279;48.964;14.502;2023-04-24T11:19:08;96104.94;;;11.11;85.30
78890;BME280;68279;48.964;14.502;2023-04-24T11:27:16;96104.69;;;11.52;84.05
78890;BME280;68279;48.964;14.502;2023-04-24T11:29:43;96102.81;;;11.84;81.75
78890;BME280;68279;48.964;14.502;2023-04-24T11:34:40;96101.00;;;11.09;86.11
78890;BME280;68279;48.964;14.502;2023-04-24T11:37:06;96099.44;;;9.99;88.49
78890;BME280;68279;48.964;14.502;2023-04-24T11:39:36;96094.66;;;10.24;87.05
78890;BME280;68279;48.964;14.502;2023-04-24T11:42:03;96085.44;;;10.88;86.18
78890;BME280;68279;48.964;14.502;2023-04-24T11:44:29;96088.69;;;10.40;86.56
78890;BME280;68279;48.964;14.502;2023-04-24T11:46:56;96092.63;;;9.93;87.72
78890;BME280;68279;48.964;14.502;2023-04-24T11:49:22;96101.00;;;10.28;90.19
78890;BME280;68279;48.964;14.502;2023-04-24T11:51:47;96102.47;;;10.06;88.94
78890;BME280;68279;48.964;14.502;2023-04-24T11:54:13;96094.09;;;10.27;88.08
78890;BME280;68279;48.964;14.502;2023-04-24T11:56:38;96100.66;;;10.79;85.98
78890;BME280;68279;48.964;14.502;2023-04-24T11:59:04;96084.81;;;11.45;85.21
78890;BME280;68279;48.964;14.502;2023-04-24T12:01:42;96087.09;;;10.98;85.47
78890;BME280;68279;48.964;14.502;2023-04-24T12:04:08;96083.34;;;12.44;85.40
78890;BME280;68279;48.964;14.502;2023-04-24T12:06:33;96078.13;;;12.99;83.84
78890;BME280;68279;48.964;14.502;2023-04-24T12:08:59;96078.09;;;13.25;83.70
78890;BME280;68279;48.964;14.502;2023-04-24T12:11:25;96080.94;;;13.03;83.19
78890;BME280;68279;48.964;14.502;2023-04-24T12:13:51;96093.63;;;12.51;82.66
78890;BME280;68279;48.964;14.502;2023-04-24T12:16:16;96094.25;;;12.73;84.53
78890;BME280;68279;48.964;14.502;2023-04-24T12:18:43;96095.50;;;12.76;82.72
78890;BME280;68279;48.964;14.502;2023-04-24T12:21:20;96112.59;;;10.59;88.66
78890;BME280;68279;48.964;14.502;2023-04-24T12:23:46;96114.19;;;10.60;90.71
78890;BME280;68279;48.964;14.502;2023-04-24T12:26:16;96106.38;;;11.40;88.09
78890;BME280;68279;48.964;14.502;2023-04-24T12:28:45;96117.03;;;11.93;85.40
78890;BME280;68279;48.964;14.502;2023-04-24T12:31:11;96123.41;;;11.21;87.19
78890;BME280;68279;48.964;14.502;2023-04-24T12:33:36;96109.28;;;11.60;86.02
78890;BME280;68279;48.964;14.502;2023-04-24T12:36:02;96127.41;;;11.95;82.77
78890;BME280;68279;48.964;14.502;2023-04-24T12:38:29;96125.25;;;11.74;83.33
78890;BME280;68279;48.964;14.502;2023-04-24T12:41:07;96135.84;;;10.95;85.45
78890;BME280;68279;48.964;14.502;2023-04-24T12:43:33;96150.16;;;10.40;85.21
78890;BME280;68279;48.964;14.502;2023-04-24T12:45:59;96131.38;;;10.68;83.55
78890;BME280;68279;48.964;14.502;2023-04-24T12:48:26;96142.97;;;10.27;86.06
78890;BME280;68279;48.964;14.502;2023-04-24T12:50:51;96136.00;;;10.40;84.54
78890;BME280;68279;48.964;14.502;2023-04-24T12:53:17;96140.59;;;10.12;80.38
78890;BME280;68279;48.964;14.502;2023-04-24T12:55:43;96131.59;;;9.94;80.92
78890;BME280;68279;48.964;14.502;2023-04-24T12:58:09;96140.09;;;9.96;84.00
78890;BME280;68279;48.964;14.502;2023-04-24T13:00:35;96135.84;;;9.95;80.20
78890;BME280;68279;48.964;14.502;2023-04-24T13:03:01;96131.47;;;10.13;80.27